sensor_id;sensor_type;location;lat;lon;timestamp;temperature;humidity
68248;SHT30;55064;49.636;12.164;2023-05-14T00:00:33;11.24;84.06
68248;SHT30;55064;49.636;12.164;2023-05-14T00:02:59;11.20;84.21
68248;SHT30;55064;49.636;12.164;2023-05-14T00:05:25;11.17;84.24
68248;SHT30;55064;49.636;12.164;2023-05-14T00:07:51;11.11;84.37
68248;SHT30;55064;49.636;12.164;2023-05-14T00:10:18;11.14;83.96
68248;SHT30;55064;49.636;12.164;2023-05-14T00:12:44;11.10;83.98
68248;SHT30;55064;49.636;12.164;2023-05-14T00:15:11;11.04;84.30
68248;SHT30;55064;49.636;12.164;2023-05-14T00:17:39;11.00;84.00
68248;SHT30;55064;49.636;12.164;2023-05-14T00:20:07;10.96;84.15
68248;SHT30;55064;49.636;12.164;2023-05-14T00:22:34;10.95;84.17
68248;SHT30;55064;49.636;12.164;2023-05-14T00:25:01;10.95;84.14
68248;SHT30;55064;49.636;12.164;2023-05-14T00:27:29;10.89;84.18
68248;SHT30;55064;49.636;12.164;2023-05-14T00:29:56;10.87;84.05
68248;SHT30;55064;49.636;12.164;2023-05-14T00:32:24;10.89;83.96
68248;SHT30;55064;49.636;12.164;2023-05-14T00:34:50;10.76;84.45
68248;SHT30;55064;49.636;12.164;2023-05-14T00:37:16;10.75;84.53
68248;SHT30;55064;49.636;12.164;2023-05-14T00:39:44;10.70;84.76
68248;SHT30;55064;49.636;12.164;2023-05-14T00:42:12;10.70;84.81
68248;SHT30;55064;49.636;12.164;2023-05-14T00:44:38;10.70;84.94
68248;SHT30;55064;49.636;12.164;2023-05-14T00:47:03;10.61;85.17
68248;SHT30;55064;49.636;12.164;2023-05-14T00:49:29;10.59;85.17
68248;SHT30;55064;49.636;12.164;2023-05-14T00:51:54;10.55;85.34
68248;SHT30;55064;49.636;12.164;2023-05-14T00:54:23;10.51;85.78
68248;SHT30;55064;49.636;12.164;2023-05-14T00:56:49;10.48;85.90
68248;SHT30;55064;49.636;12.164;2023-05-14T00:59:15;10.44;86.07
68248;SHT30;55064;49.636;12.164;2023-05-14T01:01:40;10.37;86.44
68248;SHT30;55064;49.636;12.164;2023-05-14T01:04:06;10.32;86.52
68248;SHT30;55064;49.636;12.164;2023-05-14T01:09:43;10.28;86.93
68248;SHT30;55064;49.636;12.164;2023-05-14T01:15:28;10.21;87.36
68248;SHT30;55064;49.636;12.164;2023-05-14T01:18:04;10.20;87.40
68248;SHT30;55064;49.636;12.164;2023-05-14T01:20:33;10.18;87.50
68248;SHT30;55064;49.636;12.164;2023-05-14T01:22:58;10.15;87.33
68248;SHT30;55064;49.636;12.164;2023-05-14T01:25:24;10.14;87.27
68248;SHT30;55064;49.636;12.164;2023-05-14T01:28:10;10.18;87.01
68248;SHT30;55064;49.636;12.164;2023-05-14T01:33:12;10.08;87.30
68248;SHT30;55064;49.636;12.164;2023-05-14T01:35:38;10.06;87.22
68248;SHT30;55064;49.636;12.164;2023-05-14T01:38:06;9.98;87.12
68248;SHT30;55064;49.636;12.164;2023-05-14T01:40:35;10.06;87.02
68248;SHT30;55064;49.636;12.164;2023-05-14T01:43:01;10.01;87.03
68248;SHT30;55064;49.636;12.164;2023-05-14T01:45:26;10.03;86.50
68248;SHT30;55064;49.636;12.164;2023-05-14T01:47:52;10.04;86.34
68248;SHT30;55064;49.636;12.164;2023-05-14T01:50:17;10.01;86.20
68248;SHT30;55064;49.636;12.164;2023-05-14T01:52:46;9.98;86.27
68248;SHT30;55064;49.636;12.164;2023-05-14T01:55:12;10.00;86.19
68248;SHT30;55064;49.636;12.164;2023-05-14T01:57:38;9.96;86.28
68248;SHT30;55064;49.636;12.164;2023-05-14T02:00:04;9.98;86.13
68248;SHT30;55064;49.636;12.164;2023-05-14T02:02:31;9.93;86.28
68248;SHT30;55064;49.636;12.164;2023-05-14T02:04:57;9.94;86.27
68248;SHT30;55064;49.636;12.164;2023-05-14T02:07:25;10.01;85.92
68248;SHT30;55064;49.636;12.164;2023-05-14T02:09:50;9.97;86.23
68248;SHT30;55064;49.636;12.164;2023-05-14T02:12:16;9.97;86.36
68248;SHT30;55064;49.636;12.164;2023-05-14T02:14:43;9.98;86.33
68248;SHT30;55064;49.636;12.164;2023-05-14T02:17:13;9.96;86.39
68248;SHT30;55064;49.636;12.164;2023-05-14T02:19:40;9.86;86.63
68248;SHT30;55064;49.636;12.164;2023-05-14T02:22:06;9.85;86.98
68248;SHT30;55064;49.636;12.164;2023-05-14T02:24:34;9.87;86.85
68248;SHT30;55064;49.636;12.164;2023-05-14T02:26:59;9.83;87.00
68248;SHT30;55064;49.636;12.164;2023-05-14T02:29:26;9.94;86.71
68248;SHT30;55064;49.636;12.164;2023-05-14T02:31:52;9.91;86.68
68248;SHT30;55064;49.636;12.164;2023-05-14T02:34:19;9.91;86.72
68248;SHT30;55064;49.636;12.164;2023-05-14T02:36:47;9.85;86.95
68248;SHT30;55064;49.636;12.164;2023-05-14T02:39:12;9.86;87.00
68248;SHT30;55064;49.636;12.164;2023-05-14T02:41:38;9.86;87.08
68248;SHT30;55064;49.636;12.164;2023-05-14T02:44:03;9.87;86.99
68248;SHT30;55064;49.636;12.164;2023-05-14T02:46:32;9.90;86.94
68248;SHT30;55064;49.636;12.164;2023-05-14T02:48:57;9.91;86.92
68248;SHT30;55064;49.636;12.164;2023-05-14T02:51:23;9.90;86.98
68248;SHT30;55064;49.636;12.164;2023-05-14T02:53:51;9.90;87.05
68248;SHT30;55064;49.636;12.164;2023-05-14T02:56:18;9.89;86.97
68248;SHT30;55064;49.636;12.164;2023-05-14T02:58:44;9.93;86.97
68248;SHT30;55064;49.636;12.164;2023-05-14T03:01:09;10.07;86.31
68248;SHT30;55064;49.636;12.164;2023-05-14T03:03:37;10.07;86.37
68248;SHT30;55064;49.636;12.164;2023-05-14T03:06:03;10.11;86.19
68248;SHT30;55064;49.636;12.164;2023-05-14T03:08:29;10.10;86.26
68248;SHT30;55064;49.636;12.164;2023-05-14T03:10:54;10.10;86.35
68248;SHT30;55064;49.636;12.164;2023-05-14T03:13:20;10.10;86.47
68248;SHT30;55064;49.636;12.164;2023-05-14T03:15:45;10.18;86.12
68248;SHT30;55064;49.636;12.164;2023-05-14T03:18:12;10.25;86.06
68248;SHT30;55064;49.636;12.164;2023-05-14T03:20:37;10.25;86.38
68248;SHT30;55064;49.636;12.164;2023-05-14T03:23:03;10.25;86.36
68248;SHT30;55064;49.636;12.164;2023-05-14T03:25:28;10.34;85.74
68248;SHT30;55064;49.636;12.164;2023-05-14T03:27:53;10.38;85.38
68248;SHT30;55064;49.636;12.164;2023-05-14T03:30:19;10.37;85.71
68248;SHT30;55064;49.636;12.164;2023-05-14T03:32:44;10.42;85.48
68248;SHT30;55064;49.636;12.164;2023-05-14T03:35:10;10.48;85.11
68248;SHT30;55064;49.636;12.164;2023-05-14T03:37:35;10.52;85.02
68248;SHT30;55064;49.636;12.164;2023-05-14T03:40:00;10.56;84.91
68248;SHT30;55064;49.636;12.164;2023-05-14T03:42:26;10.58;84.84
68248;SHT30;55064;49.636;12.164;2023-05-14T03:44:51;10.58;85.06
68248;SHT30;55064;49.636;12.164;2023-05-14T03:47:18;10.59;85.03
68248;SHT30;55064;49.636;12.164;2023-05-14T03:49:43;10.62;84.93
68248;SHT30;55064;49.636;12.164;2023-05-14T03:52:08;10.56;84.89
68248;SHT30;55064;49.636;12.164;2023-05-14T03:54:34;10.55;85.13
68248;SHT30;55064;49.636;12.164;2023-05-14T03:56:59;10.61;84.79
68248;SHT30;55064;49.636;12.164;2023-05-14T03:59:27;10.65;84.51
68248;SHT30;55064;49.636;12.164;2023-05-14T04:01:52;10.55;84.74
68248;SHT30;55064;49.636;12.164;2023-05-14T04:04:19;10.61;84.68
68248;SHT30;55064;49.636;12.164;2023-05-14T04:06:44;10.66;84.17
68248;SHT30;55064;49.636;12.164;2023-05-14T04:09:16;10.69;84.11
68248;SHT30;55064;49.636;12.164;2023-05-14T04:12:02;10.72;84.17
68248;SHT30;55064;49.636;12.164;2023-05-14T04:24:16;10.76;83.73
68248;SHT30;55064;49.636;12.164;2023-05-14T04:30:03;10.79;84.04
68248;SHT30;55064;49.636;12.164;2023-05-14T04:38:43;10.92;83.01
68248;SHT30;55064;49.636;12.164;2023-05-14T04:44:45;11.04;82.53
68248;SHT30;55064;49.636;12.164;2023-05-14T04:47:18;11.14;82.51
68248;SHT30;55064;49.636;12.164;2023-05-14T04:50:02;11.04;82.15
68248;SHT30;55064;49.636;12.164;2023-05-14T04:55:50;11.32;81.92
68248;SHT30;55064;49.636;12.164;2023-05-14T05:01:37;11.39;81.70
68248;SHT30;55064;49.636;12.164;2023-05-14T05:10:46;11.59;80.63
68248;SHT30;55064;49.636;12.164;2023-05-14T05:16:34;11.58;80.27
68248;SHT30;55064;49.636;12.164;2023-05-14T05:25:59;12.12;78.71
68248;SHT30;55064;49.636;12.164;2023-05-14T05:28:47;12.48;77.22
68248;SHT30;55064;49.636;12.164;2023-05-14T05:34:34;12.41;77.32
68248;SHT30;55064;49.636;12.164;2023-05-14T05:40:22;12.12;78.52
68248;SHT30;55064;49.636;12.164;2023-05-14T05:46:15;11.97;79.45
68248;SHT30;55064;49.636;12.164;2023-05-14T05:48:41;12.00;79.20
68248;SHT30;55064;49.636;12.164;2023-05-14T05:57:44;11.85;78.94
68248;SHT30;55064;49.636;12.164;2023-05-14T06:00:12;11.73;79.20
68248;SHT30;55064;49.636;12.164;2023-05-14T06:05:59;11.93;78.85
68248;SHT30;55064;49.636;12.164;2023-05-14T06:08:29;11.96;78.92
68248;SHT30;55064;49.636;12.164;2023-05-14T06:14:48;11.99;79.36
68248;SHT30;55064;49.636;12.164;2023-05-14T06:17:32;11.93;79.42
68248;SHT30;55064;49.636;12.164;2023-05-14T06:19:58;12.14;79.51
68248;SHT30;55064;49.636;12.164;2023-05-14T06:22:23;12.07;79.53
68248;SHT30;55064;49.636;12.164;2023-05-14T06:28:34;12.27;79.39
68248;SHT30;55064;49.636;12.164;2023-05-14T06:34:22;12.24;80.11
68248;SHT30;55064;49.636;12.164;2023-05-14T06:37:15;12.30;79.92
68248;SHT30;55064;49.636;12.164;2023-05-14T06:39:48;12.06;79.90
68248;SHT30;55064;49.636;12.164;2023-05-14T06:42:32;11.91;80.51
68248;SHT30;55064;49.636;12.164;2023-05-14T06:45:00;11.89;81.00
68248;SHT30;55064;49.636;12.164;2023-05-14T06:47:33;12.12;81.24
68248;SHT30;55064;49.636;12.164;2023-05-14T06:50:15;11.94;80.82
68248;SHT30;55064;49.636;12.164;2023-05-14T06:52:40;11.97;80.58
68248;SHT30;55064;49.636;12.164;2023-05-14T06:55:18;12.12;80.83
68248;SHT30;55064;49.636;12.164;2023-05-14T06:58:07;12.12;80.16
68248;SHT30;55064;49.636;12.164;2023-05-14T07:01:09;12.26;80.84
68248;SHT30;55064;49.636;12.164;2023-05-14T07:03:37;12.21;80.54
68248;SHT30;55064;49.636;12.164;2023-05-14T07:06:05;12.31;80.54
68248;SHT30;55064;49.636;12.164;2023-05-14T07:11:35;12.21;80.33
68248;SHT30;55064;49.636;12.164;2023-05-14T07:14:22;12.48;80.70
68248;SHT30;55064;49.636;12.164;2023-05-14T07:17:19;12.24;79.92
68248;SHT30;55064;49.636;12.164;2023-05-14T07:19:44;12.42;80.19
68248;SHT30;55064;49.636;12.164;2023-05-14T07:25:32;12.38;80.02
68248;SHT30;55064;49.636;12.164;2023-05-14T07:31:19;12.16;80.47
68248;SHT30;55064;49.636;12.164;2023-05-14T07:33:57;12.21;81.04
68248;SHT30;55064;49.636;12.164;2023-05-14T07:36:34;12.14;81.28
68248;SHT30;55064;49.636;12.164;2023-05-14T07:39:07;12.34;81.23
68248;SHT30;55064;49.636;12.164;2023-05-14T07:42:05;12.42;80.78
68248;SHT30;55064;49.636;12.164;2023-05-14T07:44:36;12.44;80.51
68248;SHT30;55064;49.636;12.164;2023-05-14T07:47:24;12.56;80.61
68248;SHT30;55064;49.636;12.164;2023-05-14T07:49:55;12.35;80.02
68248;SHT30;55064;49.636;12.164;2023-05-14T07:52:22;12.40;81.20
68248;SHT30;55064;49.636;12.164;2023-05-14T07:54:47;12.56;81.22
68248;SHT30;55064;49.636;12.164;2023-05-14T07:57:14;12.55;80.51
68248;SHT30;55064;49.636;12.164;2023-05-14T07:59:47;12.58;80.22
68248;SHT30;55064;49.636;12.164;2023-05-14T08:02:13;12.61;80.47
68248;SHT30;55064;49.636;12.164;2023-05-14T08:04:43;12.62;80.02
68248;SHT30;55064;49.636;12.164;2023-05-14T08:07:08;12.62;80.48
68248;SHT30;55064;49.636;12.164;2023-05-14T08:09:40;12.48;80.37
68248;SHT30;55064;49.636;12.164;2023-05-14T08:12:24;12.56;81.00
68248;SHT30;55064;49.636;12.164;2023-05-14T08:18:04;12.68;80.56
68248;SHT30;55064;49.636;12.164;2023-05-14T08:20:32;12.75;79.84
68248;SHT30;55064;49.636;12.164;2023-05-14T08:22:58;12.71;79.54
68248;SHT30;55064;49.636;12.164;2023-05-14T08:25:23;12.81;79.77
68248;SHT30;55064;49.636;12.164;2023-05-14T08:27:51;12.85;78.80
68248;SHT30;55064;49.636;12.164;2023-05-14T08:30:19;12.89;78.34
68248;SHT30;55064;49.636;12.164;2023-05-14T08:32:45;13.00;78.19
68248;SHT30;55064;49.636;12.164;2023-05-14T08:35:11;13.06;78.15
68248;SHT30;55064;49.636;12.164;2023-05-14T08:37:36;13.14;77.45
68248;SHT30;55064;49.636;12.164;2023-05-14T08:40:04;13.17;78.02
68248;SHT30;55064;49.636;12.164;2023-05-14T08:42:32;13.31;77.47
68248;SHT30;55064;49.636;12.164;2023-05-14T08:45:02;13.33;77.66
68248;SHT30;55064;49.636;12.164;2023-05-14T08:47:29;13.59;76.90
68248;SHT30;55064;49.636;12.164;2023-05-14T08:50:03;13.66;76.11
68248;SHT30;55064;49.636;12.164;2023-05-14T08:52:29;13.89;75.79
68248;SHT30;55064;49.636;12.164;2023-05-14T08:55:02;14.23;75.21
68248;SHT30;55064;49.636;12.164;2023-05-14T08:57:29;13.87;74.80
68248;SHT30;55064;49.636;12.164;2023-05-14T08:59:57;14.44;75.39
68248;SHT30;55064;49.636;12.164;2023-05-14T09:02:26;14.63;73.66
68248;SHT30;55064;49.636;12.164;2023-05-14T09:04:55;14.38;74.15
68248;SHT30;55064;49.636;12.164;2023-05-14T09:07:20;14.51;73.42
68248;SHT30;55064;49.636;12.164;2023-05-14T09:09:46;14.63;73.23
68248;SHT30;55064;49.636;12.164;2023-05-14T09:12:14;14.92;72.37
68248;SHT30;55064;49.636;12.164;2023-05-14T09:14:40;14.86;71.73
68248;SHT30;55064;49.636;12.164;2023-05-14T09:17:06;14.49;72.69
68248;SHT30;55064;49.636;12.164;2023-05-14T09:19:32;14.60;73.13
68248;SHT30;55064;49.636;12.164;2023-05-14T09:21:58;14.44;72.22
68248;SHT30;55064;49.636;12.164;2023-05-14T09:24:26;14.42;72.36
68248;SHT30;55064;49.636;12.164;2023-05-14T09:26:57;14.75;71.74
68248;SHT30;55064;49.636;12.164;2023-05-14T09:29:26;15.53;69.10
68248;SHT30;55064;49.636;12.164;2023-05-14T09:31:56;15.59;68.46
68248;SHT30;55064;49.636;12.164;2023-05-14T09:34:29;16.05;67.80
68248;SHT30;55064;49.636;12.164;2023-05-14T09:36:59;16.43;65.79
68248;SHT30;55064;49.636;12.164;2023-05-14T09:39:26;15.98;66.64
68248;SHT30;55064;49.636;12.164;2023-05-14T09:41:52;15.22;67.77
68248;SHT30;55064;49.636;12.164;2023-05-14T09:44:18;15.18;67.51
68248;SHT30;55064;49.636;12.164;2023-05-14T09:46:44;15.06;69.27
68248;SHT30;55064;49.636;12.164;2023-05-14T09:49:10;15.37;68.80
68248;SHT30;55064;49.636;12.164;2023-05-14T09:51:42;14.95;69.19
68248;SHT30;55064;49.636;12.164;2023-05-14T09:54:25;14.96;69.52
68248;SHT30;55064;49.636;12.164;2023-05-14T09:57:26;15.16;69.68
68248;SHT30;55064;49.636;12.164;2023-05-14T10:00:01;15.24;68.80
68248;SHT30;55064;49.636;12.164;2023-05-14T10:05:50;15.51;69.42
68248;SHT30;55064;49.636;12.164;2023-05-14T10:08:33;15.47;68.51
68248;SHT30;55064;49.636;12.164;2023-05-14T10:11:06;15.37;68.99
68248;SHT30;55064;49.636;12.164;2023-05-14T10:16:47;15.34;70.74
68248;SHT30;55064;49.636;12.164;2023-05-14T10:19:16;15.37;69.47
68248;SHT30;55064;49.636;12.164;2023-05-14T10:21:44;15.26;69.79
68248;SHT30;55064;49.636;12.164;2023-05-14T10:24:12;15.26;70.68
68248;SHT30;55064;49.636;12.164;2023-05-14T10:26:43;15.07;70.63
68248;SHT30;55064;49.636;12.164;2023-05-14T10:29:09;14.63;70.84
68248;SHT30;55064;49.636;12.164;2023-05-14T10:31:51;14.64;71.45
68248;SHT30;55064;49.636;12.164;2023-05-14T10:34:42;14.69;71.74
68248;SHT30;55064;49.636;12.164;2023-05-14T10:37:15;14.91;71.47
68248;SHT30;55064;49.636;12.164;2023-05-14T10:39:51;14.65;72.16
68248;SHT30;55064;49.636;12.164;2023-05-14T10:42:22;15.03;71.93
68248;SHT30;55064;49.636;12.164;2023-05-14T10:44:53;14.81;71.78
68248;SHT30;55064;49.636;12.164;2023-05-14T10:47:27;14.99;72.07
68248;SHT30;55064;49.636;12.164;2023-05-14T10:49:54;14.93;71.06
68248;SHT30;55064;49.636;12.164;2023-05-14T10:52:21;15.09;69.79
68248;SHT30;55064;49.636;12.164;2023-05-14T10:54:50;15.03;70.21
68248;SHT30;55064;49.636;12.164;2023-05-14T10:57:22;15.29;71.44
68248;SHT30;55064;49.636;12.164;2023-05-14T10:59:50;15.03;70.26
68248;SHT30;55064;49.636;12.164;2023-05-14T11:02:34;15.40;68.99
68248;SHT30;55064;49.636;12.164;2023-05-14T11:05:13;15.43;69.62
68248;SHT30;55064;49.636;12.164;2023-05-14T11:07:43;15.30;69.91
68248;SHT30;55064;49.636;12.164;2023-05-14T11:12:38;15.99;67.83
68248;SHT30;55064;49.636;12.164;2023-05-14T11:15:06;16.26;68.77
68248;SHT30;55064;49.636;12.164;2023-05-14T11:17:35;16.54;66.86
68248;SHT30;55064;49.636;12.164;2023-05-14T11:20:00;16.27;66.74
68248;SHT30;55064;49.636;12.164;2023-05-14T11:22:29;16.51;66.52
68248;SHT30;55064;49.636;12.164;2023-05-14T11:24:57;16.98;64.54
68248;SHT30;55064;49.636;12.164;2023-05-14T11:27:37;16.78;64.97
68248;SHT30;55064;49.636;12.164;2023-05-14T11:30:03;16.60;65.72
68248;SHT30;55064;49.636;12.164;2023-05-14T11:32:33;16.34;66.79
68248;SHT30;55064;49.636;12.164;2023-05-14T11:34:59;16.56;66.42
68248;SHT30;55064;49.636;12.164;2023-05-14T11:37:24;16.61;65.50
68248;SHT30;55064;49.636;12.164;2023-05-14T11:39:52;16.67;64.04
68248;SHT30;55064;49.636;12.164;2023-05-14T11:42:19;16.20;65.27
68248;SHT30;55064;49.636;12.164;2023-05-14T11:44:52;16.08;67.09
68248;SHT30;55064;49.636;12.164;2023-05-14T11:47:19;15.99;67.79
68248;SHT30;55064;49.636;12.164;2023-05-14T11:49:48;16.23;67.11
68248;SHT30;55064;49.636;12.164;2023-05-14T11:52:16;16.17;65.87
68248;SHT30;55064;49.636;12.164;2023-05-14T11:54:44;16.39;65.41
68248;SHT30;55064;49.636;12.164;2023-05-14T11:57:15;16.23;65.61
68248;SHT30;55064;49.636;12.164;2023-05-14T11:59:41;16.34;65.73
68248;SHT30;55064;49.636;12.164;2023-05-14T12:02:11;16.40;67.01
68248;SHT30;55064;49.636;12.164;2023-05-14T12:04:37;16.56;67.24
68248;SHT30;55064;49.636;12.164;2023-05-14T12:07:14;15.94;67.90
68248;SHT30;55064;49.636;12.164;2023-05-14T12:09:42;16.22;67.99
68248;SHT30;55064;49.636;12.164;2023-05-14T12:12:13;16.12;66.32
68248;SHT30;55064;49.636;12.164;2023-05-14T12:14:42;16.05;67.87
68248;SHT30;55064;49.636;12.164;2023-05-14T12:17:19;16.08;67.75
68248;SHT30;55064;49.636;12.164;2023-05-14T12:19:46;16.10;68.10
68248;SHT30;55064;49.636;12.164;2023-05-14T12:22:15;16.15;68.34
68248;SHT30;55064;49.636;12.164;2023-05-14T12:24:56;15.95;68.93
68248;SHT30;55064;49.636;12.164;2023-05-14T12:30:47;15.95;67.97
68248;SHT30;55064;49.636;12.164;2023-05-14T12:33:31;16.02;67.82
68248;SHT30;55064;49.636;12.164;2023-05-14T12:35:59;16.26;67.48
68248;SHT30;55064;49.636;12.164;2023-05-14T12:38:28;16.46;67.55
68248;SHT30;55064;49.636;12.164;2023-05-14T12:40:56;15.99;67.64
68248;SHT30;55064;49.636;12.164;2023-05-14T12:43:24;16.03;68.29
68248;SHT30;55064;49.636;12.164;2023-05-14T12:45:55;16.15;68.22
68248;SHT30;55064;49.636;12.164;2023-05-14T12:48:21;15.94;68.47
68248;SHT30;55064;49.636;12.164;2023-05-14T12:50:46;15.85;68.73
68248;SHT30;55064;49.636;12.164;2023-05-14T12:53:12;15.77;69.67
68248;SHT30;55064;49.636;12.164;2023-05-14T12:55:40;15.67;69.60
68248;SHT30;55064;49.636;12.164;2023-05-14T12:58:05;16.16;69.55
68248;SHT30;55064;49.636;12.164;2023-05-14T13:00:36;16.37;68.77
68248;SHT30;55064;49.636;12.164;2023-05-14T13:03:01;16.39;68.52
68248;SHT30;55064;49.636;12.164;2023-05-14T13:05:27;16.12;68.06
68248;SHT30;55064;49.636;12.164;2023-05-14T13:07:53;15.65;69.27
68248;SHT30;55064;49.636;12.164;2023-05-14T13:10:18;15.71;70.17
68248;SHT30;55064;49.636;12.164;2023-05-14T13:12:59;15.51;70.25
68248;SHT30;55064;49.636;12.164;2023-05-14T13:15:26;15.91;70.39
68248;SHT30;55064;49.636;12.164;2023-05-14T13:18:00;15.91;69.78
68248;SHT30;55064;49.636;12.164;2023-05-14T13:20:27;16.10;69.58
68248;SHT30;55064;49.636;12.164;2023-05-14T13:22:53;15.96;68.97
68248;SHT30;55064;49.636;12.164;2023-05-14T13:25:19;15.85;69.95
68248;SHT30;55064;49.636;12.164;2023-05-14T13:27:47;15.92;69.45
68248;SHT30;55064;49.636;12.164;2023-05-14T13:30:21;15.68;69.51
68248;SHT30;55064;49.636;12.164;2023-05-14T13:33:24;15.57;70.35
68248;SHT30;55064;49.636;12.164;2023-05-14T13:36:05;15.39;70.95
68248;SHT30;55064;49.636;12.164;2023-05-14T13:38:50;15.67;71.82
68248;SHT30;55064;49.636;12.164;2023-05-14T13:41:39;15.86;71.29
68248;SHT30;55064;49.636;12.164;2023-05-14T13:44:05;15.98;71.27
68248;SHT30;55064;49.636;12.164;2023-05-14T13:46:43;15.86;70.75
68248;SHT30;55064;49.636;12.164;2023-05-14T13:49:09;16.02;70.33
68248;SHT30;55064;49.636;12.164;2023-05-14T13:51:42;16.17;69.03
68248;SHT30;55064;49.636;12.164;2023-05-14T13:54:30;16.09;68.64
68248;SHT30;55064;49.636;12.164;2023-05-14T13:57:30;16.02;68.06
68248;SHT30;55064;49.636;12.164;2023-05-14T14:00:03;16.32;68.82
68248;SHT30;55064;49.636;12.164;2023-05-14T14:02:31;16.41;67.72
68248;SHT30;55064;49.636;12.164;2023-05-14T14:05:11;16.61;68.43
68248;SHT30;55064;49.636;12.164;2023-05-14T14:07:49;16.36;67.31
68248;SHT30;55064;49.636;12.164;2023-05-14T14:10:36;16.08;66.12
68248;SHT30;55064;49.636;12.164;2023-05-14T14:13:05;16.20;67.04
68248;SHT30;55064;49.636;12.164;2023-05-14T14:19:06;16.19;66.30
68248;SHT30;55064;49.636;12.164;2023-05-14T14:21:31;16.36;67.32
68248;SHT30;55064;49.636;12.164;2023-05-14T14:27:06;16.23;67.16
68248;SHT30;55064;49.636;12.164;2023-05-14T14:29:53;16.36;66.00
68248;SHT30;55064;49.636;12.164;2023-05-14T14:32:36;16.32;67.55
68248;SHT30;55064;49.636;12.164;2023-05-14T14:35:24;16.32;66.95
68248;SHT30;55064;49.636;12.164;2023-05-14T14:37:55;16.63;66.51
68248;SHT30;55064;49.636;12.164;2023-05-14T14:40:21;16.51;65.39
68248;SHT30;55064;49.636;12.164;2023-05-14T14:43:23;16.46;65.78
68248;SHT30;55064;49.636;12.164;2023-05-14T14:49:29;16.30;66.53
68248;SHT30;55064;49.636;12.164;2023-05-14T14:52:00;16.63;66.72
68248;SHT30;55064;49.636;12.164;2023-05-14T14:57:47;16.23;67.00
68248;SHT30;55064;49.636;12.164;2023-05-14T15:00:29;16.26;66.51
68248;SHT30;55064;49.636;12.164;2023-05-14T15:02:57;16.36;66.49
68248;SHT30;55064;49.636;12.164;2023-05-14T15:05:41;16.37;66.85
68248;SHT30;55064;49.636;12.164;2023-05-14T15:08:24;16.61;66.65
68248;SHT30;55064;49.636;12.164;2023-05-14T15:11:09;16.63;66.36
68248;SHT30;55064;49.636;12.164;2023-05-14T15:14:02;16.43;66.56
68248;SHT30;55064;49.636;12.164;2023-05-14T15:16:30;16.51;66.53
68248;SHT30;55064;49.636;12.164;2023-05-14T15:19:03;16.47;66.09
68248;SHT30;55064;49.636;12.164;2023-05-14T15:21:29;16.39;65.40
68248;SHT30;55064;49.636;12.164;2023-05-14T15:24:02;16.32;66.21
68248;SHT30;55064;49.636;12.164;2023-05-14T15:26:51;16.43;66.83
68248;SHT30;55064;49.636;12.164;2023-05-14T15:29:23;16.39;67.26
68248;SHT30;55064;49.636;12.164;2023-05-14T15:31:51;16.44;67.32
68248;SHT30;55064;49.636;12.164;2023-05-14T15:34:23;16.49;67.35
68248;SHT30;55064;49.636;12.164;2023-05-14T15:37:02;16.41;67.71
68248;SHT30;55064;49.636;12.164;2023-05-14T15:39:29;16.17;68.20
68248;SHT30;55064;49.636;12.164;2023-05-14T15:45:00;15.78;69.55
68248;SHT30;55064;49.636;12.164;2023-05-14T15:47:38;15.43;69.87
68248;SHT30;55064;49.636;12.164;2023-05-14T15:50:12;15.55;70.11
68248;SHT30;55064;49.636;12.164;2023-05-14T15:52:45;15.65;70.04
68248;SHT30;55064;49.636;12.164;2023-05-14T15:55:13;15.46;70.68
68248;SHT30;55064;49.636;12.164;2023-05-14T15:57:38;15.36;70.72
68248;SHT30;55064;49.636;12.164;2023-05-14T16:00:04;15.41;71.07
68248;SHT30;55064;49.636;12.164;2023-05-14T16:03:02;15.13;71.40
68248;SHT30;55064;49.636;12.164;2023-05-14T16:05:34;15.12;71.88
68248;SHT30;55064;49.636;12.164;2023-05-14T16:08:15;15.18;71.88
68248;SHT30;55064;49.636;12.164;2023-05-14T16:10:56;15.44;71.59
68248;SHT30;55064;49.636;12.164;2023-05-14T16:13:30;15.41;71.73
68248;SHT30;55064;49.636;12.164;2023-05-14T16:16:21;15.20;71.84
68248;SHT30;55064;49.636;12.164;2023-05-14T16:18:47;15.14;72.42
68248;SHT30;55064;49.636;12.164;2023-05-14T16:21:25;15.13;72.43
68248;SHT30;55064;49.636;12.164;2023-05-14T16:23:52;15.16;72.83
68248;SHT30;55064;49.636;12.164;2023-05-14T16:26:17;15.02;73.01
68248;SHT30;55064;49.636;12.164;2023-05-14T16:28:44;15.10;73.01
68248;SHT30;55064;49.636;12.164;2023-05-14T16:31:28;14.89;73.54
68248;SHT30;55064;49.636;12.164;2023-05-14T16:33:53;14.98;73.65
68248;SHT30;55064;49.636;12.164;2023-05-14T16:36:19;14.99;73.59
68248;SHT30;55064;49.636;12.164;2023-05-14T16:38:47;14.79;74.24
68248;SHT30;55064;49.636;12.164;2023-05-14T16:41:17;14.84;74.76
68248;SHT30;55064;49.636;12.164;2023-05-14T16:43:47;14.92;74.76
68248;SHT30;55064;49.636;12.164;2023-05-14T16:46:28;14.95;74.03
68248;SHT30;55064;49.636;12.164;2023-05-14T16:49:08;14.92;73.74
68248;SHT30;55064;49.636;12.164;2023-05-14T16:51:41;14.85;71.46
68248;SHT30;55064;49.636;12.164;2023-05-14T16:54:08;14.75;70.90
68248;SHT30;55064;49.636;12.164;2023-05-14T16:56:37;14.74;71.12
68248;SHT30;55064;49.636;12.164;2023-05-14T16:59:02;14.71;70.59
68248;SHT30;55064;49.636;12.164;2023-05-14T17:01:33;14.68;70.57
68248;SHT30;55064;49.636;12.164;2023-05-14T17:03:59;14.60;70.74
68248;SHT30;55064;49.636;12.164;2023-05-14T17:06:29;14.57;71.05
68248;SHT30;55064;49.636;12.164;2023-05-14T17:08:55;14.60;71.15
68248;SHT30;55064;49.636;12.164;2023-05-14T17:11:25;14.56;71.18
68248;SHT30;55064;49.636;12.164;2023-05-14T17:14:04;14.47;71.42
68248;SHT30;55064;49.636;12.164;2023-05-14T17:16:30;14.36;71.52
68248;SHT30;55064;49.636;12.164;2023-05-14T17:18:56;14.33;71.86
68248;SHT30;55064;49.636;12.164;2023-05-14T17:21:34;14.37;72.15
68248;SHT30;55064;49.636;12.164;2023-05-14T17:23:59;14.36;72.17
68248;SHT30;55064;49.636;12.164;2023-05-14T17:26:25;14.19;72.57
68248;SHT30;55064;49.636;12.164;2023-05-14T17:28:52;14.16;73.13
68248;SHT30;55064;49.636;12.164;2023-05-14T17:31:20;14.20;73.28
68248;SHT30;55064;49.636;12.164;2023-05-14T17:34:03;14.26;73.27
68248;SHT30;55064;49.636;12.164;2023-05-14T17:36:29;14.12;73.39
68248;SHT30;55064;49.636;12.164;2023-05-14T17:39:01;14.10;73.32
68248;SHT30;55064;49.636;12.164;2023-05-14T17:41:41;14.12;73.74
68248;SHT30;55064;49.636;12.164;2023-05-14T17:44:15;14.12;73.59
68248;SHT30;55064;49.636;12.164;2023-05-14T17:46:42;14.06;73.78